createdAt,value
2018-04-23T00:00:32.380Z,13.00
2018-04-23T00:02:59.851Z,13.03
2018-04-23T00:05:27.374Z,12.57
2018-04-23T00:07:54.838Z,12.90
2018-04-23T00:10:22.300Z,13.00
2018-04-23T00:12:49.765Z,13.40
2018-04-23T00:15:17.247Z,13.03
2018-04-23T00:17:45.486Z,13.50
2018-04-23T00:20:12.980Z,13.80
2018-04-23T00:22:40.452Z,13.47
2018-04-23T00:25:07.904Z,13.97
2018-04-23T00:27:35.449Z,13.60
2018-04-23T00:30:02.917Z,13.43
2018-04-23T00:32:30.398Z,13.23
2018-04-23T00:34:57.981Z,13.30
2018-04-23T00:37:25.463Z,13.63
2018-04-23T00:39:52.946Z,13.87
2018-04-23T00:42:20.424Z,13.77
2018-04-23T00:44:47.920Z,12.97
2018-04-23T00:47:15.392Z,13.70
2018-04-23T00:49:42.852Z,13.13
2018-04-23T00:52:10.316Z,13.53
2018-04-23T00:54:37.782Z,13.63
2018-04-23T00:57:06.032Z,13.57
2018-04-23T00:59:33.500Z,13.93
2018-04-23T01:02:00.997Z,13.23
2018-04-23T01:04:28.482Z,13.47
2018-04-23T01:06:55.964Z,14.10
2018-04-23T01:09:23.477Z,13.70
2018-04-23T01:11:50.949Z,14.37
2018-04-23T01:14:18.418Z,13.20
2018-04-23T01:16:45.890Z,13.40
2018-04-23T01:19:13.354Z,13.17
2018-04-23T01:21:40.911Z,12.70
2018-04-23T01:24:08.373Z,13.50
2018-04-23T01:26:35.833Z,13.87
2018-04-23T01:29:03.355Z,13.63
2018-04-23T01:31:30.832Z,13.13
2018-04-23T01:33:58.328Z,13.37
2018-04-23T01:36:25.810Z,13.77
2018-04-23T01:38:53.312Z,13.63
2018-04-23T01:41:20.779Z,13.93
2018-04-23T01:43:48.289Z,13.67
2018-04-23T01:46:15.758Z,14.30
2018-04-23T01:48:43.221Z,15.00
2018-04-23T01:51:10.716Z,14.27
2018-04-23T01:53:38.181Z,13.37
2018-04-23T01:56:05.646Z,13.20
2018-04-23T01:58:33.878Z,14.07
2018-04-23T02:01:01.344Z,14.40
2018-04-23T02:03:28.857Z,14.10
2018-04-23T02:05:56.340Z,12.80
2018-04-23T02:08:23.817Z,13.50
2018-04-23T02:10:51.277Z,12.63
2018-04-23T02:13:18.792Z,13.30
2018-04-23T02:15:46.308Z,12.33
2018-04-23T02:18:14.576Z,12.47
2018-04-23T02:20:42.060Z,12.60
2018-04-23T02:23:09.524Z,13.07
2018-04-23T02:25:37.020Z,12.40
2018-04-23T02:28:04.495Z,14.00
2018-04-23T02:30:31.973Z,13.60
2018-04-23T02:32:59.483Z,13.47
2018-04-23T02:35:27.055Z,13.73
2018-04-23T02:37:55.050Z,13.80
2018-04-23T02:40:22.520Z,13.47
2018-04-23T02:42:50.029Z,12.97
2018-04-23T02:45:17.516Z,12.83
2018-04-23T02:47:44.981Z,12.37
2018-04-23T02:50:12.443Z,12.37
2018-04-23T02:52:39.911Z,12.27
2018-04-23T02:55:08.144Z,11.77
2018-04-23T02:57:35.616Z,11.90
2018-04-23T03:00:03.090Z,12.60
2018-04-23T03:02:31.322Z,13.73
2018-04-23T03:04:58.836Z,13.70
2018-04-23T03:07:26.335Z,13.77
2018-04-23T03:09:53.800Z,12.70
2018-04-23T03:12:21.265Z,13.00
2018-04-23T03:14:48.769Z,12.13
2018-04-23T03:17:16.305Z,11.77
2018-04-23T03:19:43.769Z,11.57
2018-04-23T03:22:11.343Z,11.63
2018-04-23T03:24:38.809Z,12.00
2018-04-23T03:27:06.279Z,11.93
2018-04-23T03:29:33.745Z,11.50
2018-04-23T03:32:01.271Z,11.67
2018-04-23T03:34:28.735Z,12.17
2018-04-23T03:36:56.238Z,12.40
2018-04-23T03:39:23.740Z,13.17
2018-04-23T03:41:51.200Z,12.47
2018-04-23T03:44:18.660Z,13.23
2018-04-23T03:46:46.900Z,12.83
2018-04-23T03:49:14.406Z,12.77
2018-04-23T03:51:41.980Z,13.30
2018-04-23T03:54:09.443Z,13.03
2018-04-23T03:56:37.746Z,12.67
2018-04-23T03:59:05.212Z,12.43
2018-04-23T04:01:32.724Z,11.13
2018-04-23T04:04:00.224Z,11.07
2018-04-23T04:06:28.455Z,11.17
2018-04-23T04:08:56.000Z,11.73
2018-04-23T04:11:23.473Z,11.63
2018-04-23T04:14:02.770Z,11.23
2018-04-23T04:16:42.156Z,11.37
2018-04-23T04:19:09.617Z,10.67
2018-04-23T04:21:37.081Z,10.37
2018-04-23T04:24:04.541Z,9.73
2018-04-23T04:26:32.001Z,11.03
2018-04-23T04:28:59.471Z,11.93
2018-04-23T04:31:27.798Z,12.23
2018-04-23T04:33:56.024Z,12.73
2018-04-23T04:36:23.489Z,11.93
2018-04-23T04:38:50.957Z,12.77
2018-04-23T04:41:18.473Z,12.50
2018-04-23T04:43:45.937Z,13.53
2018-04-23T04:46:13.396Z,12.13
2018-04-23T04:48:41.644Z,11.40
2018-04-23T04:51:09.149Z,11.73
2018-04-23T04:53:36.740Z,10.37
2018-04-23T04:56:04.229Z,11.73
2018-04-23T04:58:31.770Z,11.40
2018-04-23T05:00:59.346Z,12.30
2018-04-23T05:03:26.804Z,11.13
2018-04-23T05:05:54.394Z,11.37
2018-04-23T05:08:21.832Z,11.10
2018-04-23T05:10:49.569Z,11.47
2018-04-23T05:13:17.032Z,10.93
2018-04-23T05:15:45.281Z,10.87
2018-04-23T05:18:12.782Z,10.87
2018-04-23T05:20:40.270Z,10.20
2018-04-23T05:23:07.736Z,9.87
2018-04-23T05:25:35.198Z,10.23
2018-04-23T05:28:02.709Z,9.30
2018-04-23T05:30:30.186Z,9.80
2018-04-23T05:32:57.648Z,9.50
2018-04-23T05:35:25.874Z,10.87
2018-04-23T05:37:53.340Z,10.30
2018-04-23T05:40:21.569Z,9.93
2018-04-23T05:42:49.060Z,10.87
2018-04-23T05:45:16.533Z,9.90
2018-04-23T05:47:44.006Z,9.07
2018-04-23T05:50:11.563Z,9.70
2018-04-23T05:52:39.105Z,8.63
2018-04-23T05:55:06.567Z,8.63
2018-04-23T05:57:34.804Z,9.60
2018-04-23T06:00:02.282Z,9.40
2018-04-23T06:02:29.782Z,9.73
2018-04-23T06:04:57.245Z,9.07
2018-04-23T06:07:24.756Z,8.53
2018-04-23T06:09:52.221Z,8.73
2018-04-23T06:12:19.722Z,8.47
2018-04-23T06:14:47.192Z,8.30
2018-04-23T06:17:14.650Z,8.33
2018-04-23T06:19:42.153Z,8.63
2018-04-23T06:22:09.589Z,8.33
2018-04-23T06:24:37.832Z,8.33
2018-04-23T06:27:05.321Z,8.73
2018-04-23T06:29:32.790Z,9.17
2018-04-23T06:32:00.281Z,9.20
2018-04-23T06:34:27.752Z,9.73
2018-04-23T06:36:55.220Z,9.40
2018-04-23T06:39:22.692Z,10.20
2018-04-23T06:41:50.153Z,10.77
2018-04-23T06:44:18.380Z,10.80
2018-04-23T06:46:45.840Z,9.57
2018-04-23T06:49:14.096Z,9.87
2018-04-23T06:51:41.577Z,9.67
2018-04-23T06:54:09.050Z,10.70
2018-04-23T06:56:36.513Z,10.53
2018-04-23T06:59:03.992Z,10.10
2018-04-23T07:01:32.218Z,10.00
2018-04-23T07:03:59.676Z,10.30
2018-04-23T07:06:27.146Z,10.67
2018-04-23T07:08:54.704Z,10.60
2018-04-23T07:11:22.175Z,10.60
2018-04-23T07:13:49.674Z,9.57
2018-04-23T07:16:17.142Z,8.97
2018-04-23T07:18:44.607Z,8.50
2018-04-23T07:21:12.125Z,8.63
2018-04-23T07:23:39.584Z,8.10
2018-04-23T07:26:07.049Z,7.57
2018-04-23T07:28:34.560Z,8.00
2018-04-23T07:31:02.042Z,7.50
2018-04-23T07:33:29.511Z,6.87
2018-04-23T07:35:56.974Z,6.57
2018-04-23T07:38:25.224Z,6.93
2018-04-23T07:40:52.708Z,6.55
2018-04-23T07:43:20.188Z,6.45
2018-04-23T07:45:48.033Z,5.62
2018-04-23T07:48:16.277Z,6.32
2018-04-23T07:50:43.732Z,5.65
2018-04-23T07:53:11.252Z,6.00
2018-04-23T07:55:38.713Z,5.20
2018-04-23T07:58:06.168Z,4.78
2018-04-23T08:00:34.396Z,4.55
2018-04-23T08:03:01.890Z,5.35
2018-04-23T08:05:29.365Z,4.78
2018-04-23T08:07:56.845Z,4.70
2018-04-23T08:10:24.324Z,5.72
2018-04-23T08:12:51.792Z,5.45
2018-04-23T08:15:19.295Z,5.00
2018-04-23T08:17:46.790Z,4.87
2018-04-23T08:20:14.358Z,4.75
2018-04-23T08:22:41.853Z,4.93
2018-04-23T08:25:09.421Z,5.18
2018-04-23T08:27:36.881Z,5.40
2018-04-23T08:30:04.342Z,4.90
2018-04-23T08:32:31.812Z,5.62
2018-04-23T08:35:00.044Z,5.70
2018-04-23T08:37:27.527Z,5.80
2018-04-23T08:39:55.028Z,7.12
2018-04-23T08:42:22.516Z,7.50
2018-04-23T08:44:49.995Z,8.57
2018-04-23T08:47:17.454Z,8.50
2018-04-23T08:49:44.966Z,7.50
2018-04-23T08:52:12.421Z,7.30
2018-04-23T08:54:40.645Z,8.10
2018-04-23T08:57:08.106Z,8.00
2018-04-23T08:59:35.566Z,7.77
2018-04-23T09:02:03.793Z,7.87
2018-04-23T09:04:31.256Z,7.23
2018-04-23T09:06:59.512Z,7.87
2018-04-23T09:09:26.977Z,8.37
2018-04-23T09:11:54.432Z,8.40
2018-04-23T09:14:21.888Z,9.10
2018-04-23T09:16:50.860Z,10.23
2018-04-23T09:19:18.364Z,10.67
2018-04-23T09:21:45.825Z,11.63
2018-04-23T09:24:13.378Z,11.77
2018-04-23T09:26:41.628Z,11.30
2018-04-23T09:29:09.085Z,11.87
2018-04-23T09:31:36.614Z,10.20
2018-04-23T09:34:04.177Z,9.77
2018-04-23T09:36:31.632Z,8.87
2018-04-23T09:38:59.120Z,9.23
2018-04-23T09:41:26.569Z,8.77
2018-04-23T09:43:54.790Z,9.40
2018-04-23T09:46:22.255Z,9.23
2018-04-23T09:48:50.485Z,9.27
2018-04-23T09:51:18.490Z,10.13
2018-04-23T09:53:46.002Z,9.80
2018-04-23T09:56:13.461Z,8.73
2018-04-23T09:58:41.012Z,9.40
2018-04-23T10:01:14.057Z,8.77
2018-04-23T10:03:41.529Z,7.83
2018-04-23T10:06:09.062Z,7.80
2018-04-23T10:08:36.623Z,7.70
2018-04-23T10:11:04.109Z,7.90
2018-04-23T10:13:31.581Z,8.30
2018-04-23T10:15:59.044Z,8.90
2018-04-23T10:18:26.507Z,9.87
2018-04-23T10:20:53.966Z,9.33
2018-04-23T10:23:22.232Z,9.83
2018-04-23T10:25:49.703Z,9.67
2018-04-23T10:28:17.185Z,10.47
2018-04-23T10:30:44.646Z,9.93
2018-04-23T10:33:12.106Z,10.47
2018-04-23T10:35:39.629Z,10.60
2018-04-23T10:38:07.098Z,11.30
2018-04-23T10:40:34.557Z,11.53
2018-04-23T10:43:02.019Z,11.33
2018-04-23T10:45:30.279Z,11.20
2018-04-23T10:47:57.740Z,11.57
2018-04-23T10:50:25.237Z,9.27
2018-04-23T10:52:52.741Z,9.80
2018-04-23T10:55:20.313Z,8.43
2018-04-23T10:57:47.778Z,8.70
2018-04-23T11:00:15.281Z,8.70
2018-04-23T11:02:42.849Z,8.03
2018-04-23T11:05:10.384Z,8.53
2018-04-23T11:07:38.612Z,8.30
2018-04-23T11:10:06.073Z,9.03
2018-04-23T11:12:34.296Z,7.07
2018-04-23T11:15:01.848Z,6.93
2018-04-23T11:17:30.081Z,7.10
2018-04-23T11:19:57.542Z,7.20
2018-04-23T11:22:25.001Z,6.47
2018-04-23T11:24:53.225Z,7.10
2018-04-23T11:27:20.685Z,6.03
2018-04-23T11:29:48.944Z,6.67
2018-04-23T11:32:16.405Z,5.63
2018-04-23T11:34:43.864Z,5.80
2018-04-23T11:37:12.094Z,6.10
2018-04-23T11:39:39.557Z,5.57
2018-04-23T11:42:07.016Z,5.30
2018-04-23T11:44:34.564Z,5.83
2018-04-23T11:47:02.025Z,5.70
2018-04-23T11:49:29.494Z,5.50
2018-04-23T11:51:57.016Z,5.23
2018-04-23T11:54:24.498Z,4.90
2018-04-23T11:56:51.956Z,5.17
2018-04-23T11:59:19.456Z,4.97
2018-04-23T12:01:46.994Z,4.60
2018-04-23T12:04:15.247Z,4.57
2018-04-23T12:06:42.825Z,4.60
2018-04-23T12:09:10.297Z,4.60
2018-04-23T12:11:37.805Z,4.37
2018-04-23T12:14:05.285Z,4.97
2018-04-23T12:16:32.745Z,4.57
2018-04-23T12:19:00.205Z,5.07
2018-04-23T12:21:27.732Z,5.30
2018-04-23T12:23:55.208Z,4.63
2018-04-23T12:26:22.696Z,4.90
2018-04-23T12:28:50.176Z,4.10
2018-04-23T12:31:17.678Z,4.50
2018-04-23T12:33:45.140Z,4.30
2018-04-23T12:36:12.615Z,4.30
2018-04-23T12:38:40.082Z,5.03
2018-04-23T12:41:07.584Z,4.80
2018-04-23T12:43:35.064Z,4.80
2018-04-23T12:46:02.569Z,4.77
2018-04-23T12:48:29.997Z,4.23
2018-04-23T12:50:57.510Z,4.80
2018-04-23T12:53:24.965Z,4.63
2018-04-23T12:55:52.425Z,4.90
2018-04-23T12:58:20.652Z,5.27
2018-04-23T13:00:48.897Z,4.77
2018-04-23T13:03:16.352Z,4.47
2018-04-23T13:05:43.817Z,5.13
2018-04-23T13:08:12.040Z,5.20
2018-04-23T13:10:39.496Z,5.10
2018-04-23T13:13:07.728Z,4.70
2018-04-23T13:15:35.953Z,4.67
2018-04-23T13:18:03.419Z,5.13
2018-04-23T13:20:30.966Z,5.57
2018-04-23T13:22:59.192Z,5.37
2018-04-23T13:25:27.422Z,5.30
2018-04-23T13:27:54.934Z,5.83
2018-04-23T13:30:22.468Z,5.30
2018-04-23T13:32:50.694Z,5.50
2018-04-23T13:35:18.293Z,5.00
2018-04-23T13:37:45.753Z,5.93
2018-04-23T13:40:13.220Z,6.23
2018-04-23T13:42:41.519Z,5.70
2018-04-23T13:45:09.056Z,5.53
2018-04-23T13:47:36.562Z,5.60
2018-04-23T13:50:04.040Z,5.70
2018-04-23T13:52:31.520Z,5.77
2018-04-23T13:54:59.004Z,5.20
2018-04-23T13:57:26.465Z,5.87
2018-04-23T13:59:53.939Z,6.13
2018-04-23T14:02:21.406Z,6.00
2018-04-23T14:04:49.636Z,8.80
2018-04-23T14:07:17.097Z,5.53
2018-04-23T14:09:45.438Z,5.30
2018-04-23T14:12:12.901Z,5.63
2018-04-23T14:14:40.420Z,5.70
2018-04-23T14:17:07.909Z,5.73
2018-04-23T14:19:35.392Z,6.47
2018-04-23T14:22:02.854Z,5.30
2018-04-23T14:24:30.397Z,6.43
2018-04-23T14:26:57.856Z,6.03
2018-04-23T14:29:26.088Z,5.90
2018-04-23T14:31:54.316Z,5.63
2018-04-23T14:34:21.772Z,6.50
2018-04-23T14:36:49.236Z,6.87
2018-04-23T14:39:18.672Z,6.37
2018-04-23T14:41:46.142Z,6.17
2018-04-23T14:44:14.394Z,6.33
2018-04-23T14:46:41.922Z,6.73
2018-04-23T14:49:10.161Z,6.10
2018-04-23T14:51:37.637Z,6.40
2018-04-23T14:54:05.101Z,6.83
2018-04-23T14:56:32.672Z,6.33
2018-04-23T14:59:00.152Z,6.63
2018-04-23T15:01:28.407Z,6.60
2018-04-23T15:03:55.956Z,6.87
2018-04-23T15:06:23.469Z,6.73
2018-04-23T15:08:50.948Z,6.27
2018-04-23T15:11:18.424Z,6.73
2018-04-23T15:13:45.908Z,6.90
2018-04-23T15:16:13.370Z,6.13
2018-04-23T15:18:40.833Z,8.73
2018-04-23T15:21:09.073Z,6.70
2018-04-23T15:23:36.701Z,7.33
2018-04-23T15:26:04.632Z,7.57
2018-04-23T15:28:32.101Z,7.27
2018-04-23T15:30:59.618Z,7.23
2018-04-23T15:33:27.096Z,7.20
2018-04-23T15:35:54.602Z,6.97
2018-04-23T15:38:22.071Z,7.47
2018-04-23T15:40:49.540Z,8.03
2018-04-23T15:43:17.008Z,8.23
2018-04-23T15:45:44.480Z,8.07
2018-04-23T15:48:11.941Z,7.43
2018-04-23T15:50:40.169Z,7.63
2018-04-23T15:53:08.497Z,7.77
2018-04-23T15:55:36.046Z,7.37
2018-04-23T15:58:04.305Z,7.77
2018-04-23T16:00:31.764Z,7.90
2018-04-23T16:02:59.226Z,5.47
2018-04-23T16:05:27.446Z,2.67
2018-04-23T16:07:54.952Z,2.23
2018-04-23T16:10:22.452Z,1.87
2018-04-23T16:12:49.876Z,2.40
2018-04-23T16:15:18.101Z,3.10
2018-04-23T16:17:45.614Z,3.40
2018-04-23T16:20:13.086Z,3.63
2018-04-23T16:22:40.541Z,4.60
2018-04-23T16:25:08.000Z,4.43
2018-04-23T16:30:13.980Z,5.37
2018-04-23T16:32:41.457Z,4.87
2018-04-23T16:35:08.957Z,5.40
2018-04-23T16:37:36.422Z,5.50
2018-04-23T16:40:03.936Z,4.70
2018-04-23T16:42:31.393Z,4.20
2018-04-23T16:44:58.869Z,4.73
2018-04-23T16:47:26.335Z,5.00
2018-04-23T16:49:53.781Z,5.00
2018-04-23T16:52:21.245Z,5.37
2018-04-23T16:54:49.397Z,4.80
2018-04-23T16:57:17.616Z,4.70
2018-04-23T16:59:45.070Z,4.80
2018-04-23T17:02:13.298Z,5.33
2018-04-23T17:04:40.820Z,5.10
2018-04-23T17:07:09.079Z,5.60
2018-04-23T17:09:36.548Z,5.73
2018-04-23T17:12:04.017Z,5.83
2018-04-23T17:14:31.477Z,5.33
2018-04-23T17:16:58.933Z,5.77
2018-04-23T17:19:27.162Z,7.23
2018-04-23T17:21:54.616Z,7.50
2018-04-23T17:24:22.166Z,7.40
2018-04-23T17:26:50.388Z,7.97
2018-04-23T17:34:17.132Z,10.07
2018-04-23T17:36:44.597Z,11.47
2018-04-23T17:39:12.085Z,9.63
2018-04-23T17:41:39.581Z,9.13
2018-04-23T17:44:07.045Z,9.13
2018-04-23T17:46:34.508Z,7.80
2018-04-23T17:49:01.976Z,8.53
2018-04-23T17:51:29.436Z,8.37
2018-04-23T17:53:56.900Z,9.40
2018-04-23T17:56:24.352Z,9.37
2018-04-23T17:58:51.864Z,9.67
2018-04-23T18:01:19.293Z,7.73
2018-04-23T18:03:46.771Z,8.90
2018-04-23T18:06:14.989Z,8.73
2018-04-23T18:08:42.461Z,8.27
2018-04-23T18:11:09.977Z,9.70
2018-04-23T18:13:38.165Z,9.83
2018-04-23T18:16:05.626Z,8.57
2018-04-23T18:18:34.215Z,8.90
2018-04-23T18:21:01.685Z,9.43
2018-04-23T18:23:29.148Z,10.00
2018-04-23T18:25:56.607Z,10.53
2018-04-23T18:28:24.070Z,10.13
2018-04-23T18:30:52.324Z,11.67
2018-04-23T18:33:19.793Z,10.23
2018-04-23T18:35:47.261Z,9.83
2018-04-23T18:38:14.729Z,11.57
2018-04-23T18:40:42.240Z,10.67
2018-04-23T18:43:09.696Z,10.40
2018-04-23T18:45:37.987Z,10.53
2018-04-23T18:48:05.413Z,10.33
2018-04-23T18:50:32.932Z,9.80
2018-04-23T18:53:00.366Z,10.00
2018-04-23T18:55:27.839Z,10.20
2018-04-23T18:57:55.357Z,11.07
2018-04-23T19:00:22.820Z,10.53
2018-04-23T19:02:50.276Z,10.37
2018-04-23T19:05:17.766Z,11.73
2018-04-23T19:07:45.240Z,12.23
2018-04-23T19:10:13.467Z,11.60
2018-04-23T19:12:40.948Z,12.27
2018-04-23T19:15:09.176Z,12.50
2018-04-23T19:17:36.761Z,13.10
2018-04-23T19:20:04.243Z,12.23
2018-04-23T19:22:31.705Z,11.37
2018-04-23T19:24:59.165Z,11.60
2018-04-23T19:27:27.462Z,12.03
2018-04-23T19:29:54.868Z,12.07
2018-04-23T19:32:22.341Z,12.40
2018-04-23T19:34:49.832Z,10.93
2018-04-23T19:37:17.296Z,11.30
2018-04-23T19:39:44.786Z,11.20
2018-04-23T19:42:12.265Z,11.77
2018-04-23T19:44:39.726Z,11.90
2018-04-23T19:47:07.976Z,12.70
2018-04-23T19:49:35.448Z,11.03
2018-04-23T19:52:02.912Z,11.70
2018-04-23T19:54:31.155Z,12.30
2018-04-23T19:56:58.638Z,12.97
2018-04-23T19:59:26.116Z,10.67
2018-04-23T20:01:53.600Z,10.67
2018-04-23T20:04:21.081Z,10.03
2018-04-23T20:06:48.644Z,9.57
2018-04-23T20:09:16.144Z,10.23
2018-04-23T20:11:43.601Z,9.57
2018-04-23T20:14:11.104Z,10.80
2018-04-23T20:16:38.592Z,10.77
2018-04-23T20:19:06.083Z,10.67
2018-04-23T20:21:33.549Z,10.97
2018-04-23T20:24:01.056Z,10.43
2018-04-23T20:26:28.585Z,11.10
2018-04-23T20:28:56.110Z,11.40
2018-04-23T20:32:20.426Z,11.20
2018-04-23T20:34:47.887Z,10.70
2018-04-23T20:37:15.418Z,10.03
2018-04-23T20:39:42.877Z,10.67
2018-04-23T20:42:10.336Z,10.63
2018-04-23T20:44:37.800Z,10.57
2018-04-23T20:47:06.055Z,11.90
2018-04-23T20:49:33.521Z,11.70
2018-04-23T20:52:01.012Z,12.47
2018-04-23T20:54:28.498Z,11.80
2018-04-23T20:56:55.960Z,12.50
2018-04-23T20:59:23.571Z,13.90
2018-04-23T21:01:50.959Z,13.50
2018-04-23T21:04:18.425Z,14.77
2018-04-23T21:06:45.897Z,15.00
2018-04-23T21:09:13.356Z,14.07
2018-04-23T21:11:40.820Z,14.50
2018-04-23T21:14:09.129Z,15.03
2018-04-23T21:16:37.384Z,14.43
2018-04-23T21:19:04.845Z,15.70
2018-04-23T21:21:32.305Z,16.73
2018-04-23T21:23:59.764Z,16.43
2018-04-23T21:26:27.313Z,16.70
2018-04-23T21:28:54.774Z,16.90
2018-04-23T21:31:22.272Z,16.37
2018-04-23T21:33:49.754Z,17.67
2018-04-23T21:36:17.278Z,17.43
2018-04-23T21:38:45.537Z,16.87
2018-04-23T21:41:12.998Z,18.27
2018-04-23T21:43:40.533Z,19.17
2018-04-23T21:46:07.969Z,19.70
2018-04-23T21:48:35.457Z,18.70
2018-04-23T21:51:02.940Z,19.20
2018-04-23T21:53:30.424Z,20.00
2018-04-23T21:55:57.921Z,21.37
2018-04-23T21:58:25.432Z,20.97
2018-04-23T22:00:52.892Z,22.13
2018-04-23T22:03:20.353Z,21.23
2018-04-23T22:05:47.825Z,21.60
2018-04-23T22:08:15.335Z,21.10
2018-04-23T22:10:42.808Z,20.23
2018-04-23T22:13:10.302Z,20.90
2018-04-23T22:15:37.758Z,20.90
2018-04-23T22:18:05.266Z,20.30
2018-04-23T22:20:32.687Z,19.87
2018-04-23T22:23:00.945Z,21.97
2018-04-23T22:25:28.420Z,23.13
2018-04-23T22:27:55.896Z,23.03
2018-04-23T22:30:23.364Z,23.63
2018-04-23T22:32:50.825Z,22.33
2018-04-23T22:35:18.333Z,21.97
2018-04-23T22:37:45.793Z,24.73
2018-04-23T22:40:13.305Z,22.93
2018-04-23T22:42:40.772Z,25.07
2018-04-23T22:45:08.249Z,25.20
2018-04-23T22:47:35.761Z,25.70
2018-04-23T22:50:03.220Z,25.90
2018-04-23T22:52:30.730Z,25.70
2018-04-23T22:54:58.208Z,25.57
2018-04-23T22:57:25.693Z,23.67
2018-04-23T22:59:53.155Z,24.77
2018-04-23T23:02:20.617Z,23.87
2018-04-23T23:04:48.073Z,21.10
2018-04-23T23:07:16.336Z,23.10
2018-04-23T23:09:43.793Z,21.13
2018-04-23T23:12:11.254Z,21.43
2018-04-23T23:14:38.773Z,21.27
2018-04-23T23:17:06.234Z,22.60
2018-04-23T23:19:33.741Z,21.27
2018-04-23T23:22:01.226Z,22.80
2018-04-23T23:24:28.684Z,21.30
2018-04-23T23:26:56.141Z,21.53
2018-04-23T23:29:24.368Z,21.00
2018-04-23T23:31:51.829Z,21.23
2018-04-23T23:34:19.348Z,20.87
2018-04-23T23:36:46.816Z,20.50
2018-04-23T23:39:14.277Z,20.87
2018-04-23T23:41:41.732Z,21.33
2018-04-23T23:44:09.964Z,24.63
2018-04-23T23:46:37.470Z,23.90
2018-04-23T23:49:04.933Z,24.00
2018-04-23T23:51:32.394Z,25.10
2018-04-23T23:53:59.903Z,20.90
2018-04-23T23:56:28.104Z,18.23
2018-04-23T23:58:55.599Z,20.93
